• Join FlightAware (Why Join?)
  • Login
  • US Flag 
08:47AM EDT


 

Airport Tracker/Info


-or-


 

Live Flight TrackerFlight Track Log ✈ FLG3429 ✈ 19-Jun-2013 ✈ KPSC - KMSP

Flight Track Log - Related Links

Times and Time Zones

All times are in EDT time to prevent confusion due to time zone crossing. See the FLG3429 flight status page for this flight to view local times or setup timezone preferences in your user account.

Time Position Orientation Groundspeed Altitude Reporting Facility
EDT Latitude Longitude Course Direction KTS MPH feet Rate Location/Type
04:15PM 46.2219 -119.1747 72° East 192 221 2,700  Level Salt Lake Center
04:16PM 46.1875 -119.0958 122° Southeast 264 304 4,200 2,100 Climbing Seattle Center
04:17PM 46.3624 -118.6478 73° East  Level FlightAware Approximate
04:17PM 46.1650 -118.9864 106° East 283 326 7,000  Level Seattle Center
04:18PM 46.3966 -118.4884 73° East  Level FlightAware Approximate
04:18PM 46.1892 -118.8769 72° East 290 334 9,600  Level Seattle Center
04:19PM 46.4307 -118.3289 73° East  Level FlightAware Approximate
04:19PM 46.2222 -118.7647 67° East 305 351 11,300  Level Seattle Center
04:20PM 46.4670 -118.1661 72° East  Level FlightAware Approximate
04:20PM 46.2642 -118.6367 65° Northeast 335 386 13,500  Level Seattle Center
04:21PM 46.3025 -118.5064 67° East 348 400 16,000 2,040 Climbing Seattle Center
04:22PM 46.3417 -118.3711 67° East 360 414 17,700 1,800 Climbing Seattle Center
04:23PM 46.3833 -118.2367 66° East 364 419 19,700 1,920 Climbing Seattle Center
04:24PM 46.4247 -118.0986 66° East 371 427 21,700 2,100 Climbing Seattle Center
04:25PM 46.4731 -117.9289 67° East 380 437 24,100 2,160 Climbing Seattle Center
04:26PM 46.5108 -117.7903 68° East 370 426 26,100 1,920 Climbing Seattle Center
04:27PM 46.5500 -117.6592 66° East 358 412 28,100 1,920 Climbing Seattle Center
04:28PM 46.5869 -117.5325 67° East 344 396 30,100 1,860 Climbing Seattle Center
04:29PM 46.6197 -117.4136 68° East 326 375 32,000 1,260 Climbing Seattle Center
04:30PM 46.6514 -117.3000 68° East 311 358 32,700 420 Climbing Seattle Center
04:31PM 46.6933 -117.1867 62° Northeast 319 367 32,900 60 Climbing Seattle Center
04:32PM 46.7444 -117.0639 59° Northeast 352 405 32,900 60 Level Seattle Center
04:33PM 46.7586 -116.9200 82° East 361 415 33,100 360 Climbing Seattle Center
04:34PM 46.7739 -116.7431 83° East 370 426 33,700 600 Climbing Seattle Center
04:35PM 46.7872 -116.5892 83° East 384 442 34,400 600 Climbing Seattle Center
04:36PM 46.8000 -116.4356 83° East 387 445 35,000 240 Climbing Seattle Center
04:37PM 46.8133 -116.2756 83° East 401 461 35,000  Level Seattle Center
04:38PM 46.8267 -116.1083 83° East 418 481 35,000  Level Seattle Center
04:39PM 46.8411 -115.9372 83° East 426 490 35,000  Level Seattle Center
04:40PM 46.8547 -115.7622 83° East 434 499 35,000 -60 Level Seattle Center
04:41PM 46.8678 -115.5878 84° East 435 501 34,900 780 Descending Seattle Center
04:42PM 46.8817 -115.4186 83° East 427 491 36,700 1,020 Climbing Seattle Center
04:43PM 46.8953 -115.2283 84° East 408 470 37,000 120 Climbing Seattle Center
04:44PM 46.9067 -115.0611 84° East 412 474 37,000  Level Seattle Center
04:45PM 46.9197 -114.8883 84° East 422 486 37,000  Level Seattle Center
04:46PM 46.9314 -114.7100 84° East 436 502 37,000  Level Seattle Center
04:47PM 46.9431 -114.5294 85° East 445 512 37,000  Level Seattle Center
04:48PM 46.9556 -114.3439 84° East 455 524 37,000  Level Seattle Center
04:49PM 46.9675 -114.1608 84° East 456 525 37,000  Level Seattle Center
04:50PM 46.9811 -113.9378 85° East 460 529 37,000 -60 Level Seattle Center
04:52PM 46.9922 -113.7533 85° East 458 527 36,900  Descending Seattle Center
04:53PM 47.0036 -113.5728 85° East 452 520 37,000  Climbing Seattle Center
04:54PM 47.0175 -113.3189 85° East 449 517 37,000  Level Salt Lake Center
04:55PM 47.0275 -113.1372 85° East 450 518 37,000  Level Salt Lake Center
04:56PM 47.0372 -112.9567 85° East 447 514 37,000  Level Salt Lake Center
04:57PM 47.0481 -112.7536 85° East 450 518 37,000  Level Salt Lake Center
04:58PM 47.0575 -112.5725 86° East 448 516 37,000  Level Salt Lake Center
04:59PM 47.0669 -112.3925 86° East 445 512 37,000  Level Salt Lake Center
05:00PM 47.0669 -112.2106 90° East 449 517 37,000  Level Salt Lake Center
05:01PM 47.0650 -112.0289 91° East 448 516 37,000  Level Salt Lake Center
05:02PM 47.0583 -111.8122 93° East 448 516 37,000  Level Salt Lake Center
05:03PM 47.0489 -111.6322 94° East 447 514 37,000  Level Salt Lake Center
05:04PM 47.0361 -111.4528 96° East 447 514 37,000  Level Salt Lake Center
05:05PM 47.0289 -111.2728 93° East 446 513 37,000  Level Salt Lake Center
05:06PM 46.9978 -111.0981 105° East 448 516 37,000  Level Salt Lake Center
05:07PM 46.9664 -110.9244 105° East 446 513 37,000  Level Salt Lake Center
05:08PM 47.0011 -110.7050 77° East 476 548 37,000  Level Salt Lake Center
05:09PM 47.0539 -110.5275 66° East 476 548 37,000  Level Salt Lake Center
05:10PM 47.0631 -110.3344 86° East 474 545 37,000  Level Salt Lake Center
05:11PM 47.0686 -110.1408 88° East 479 551 37,000  Level Salt Lake Center
05:12PM 47.0742 -109.9469 88° East 478 550 37,000  Level Salt Lake Center
05:14PM 47.0819 -109.7131 87° East 481 554 37,000 -60 Level Salt Lake Center
05:15PM 47.0881 -109.5183 87° East 481 554 36,900  Descending Salt Lake Center
05:16PM 47.0931 -109.3208 88° East 483 556 37,000  Climbing Salt Lake Center
05:17PM 47.0983 -109.1242 88° East 484 557 37,000  Level Salt Lake Center
05:18PM 47.1025 -108.9036 88° East 489 563 37,000  Level Salt Lake Center
05:19PM 47.1067 -108.7044 88° East 491 565 37,000  Level Salt Lake Center
05:20PM 47.1111 -108.5053 88° East 489 563 37,000  Level Salt Lake Center
05:21PM 47.1147 -108.3069 88° East 488 562 37,000  Level Salt Lake Center
05:22PM 47.1228 -108.0914 87° East 488 562 37,000  Level Salt Lake Center
05:23PM 47.1258 -107.8928 89° East 490 564 37,000  Level Salt Lake Center
05:24PM 47.1272 -107.6731 89° East 489 563 37,000  Level Salt Lake Center
05:25PM 47.1289 -107.4728 89° East 491 565 37,000  Level Salt Lake Center
05:26PM 47.1331 -107.2739 88° East 490 564 37,000  Level Salt Lake Center
05:27PM 47.1319 -107.0731 90° East 492 566 37,000  Level Salt Lake Center
05:28PM 47.1339 -106.8731 89° East 492 566 37,000  Level Salt Lake Center
05:29PM 47.1369 -106.6739 89° East 491 565 37,000  Level Salt Lake Center
05:30PM 47.1342 -106.4733 91° East 492 566 37,000  Level Salt Lake Center
05:31PM 47.1339 -106.2336 90° East 492 566 37,000  Level Salt Lake Center
05:32PM 47.1350 -106.0364 89° East 489 563 37,000  Level Salt Lake Center
05:33PM 47.1350 -105.8389 90° East 488 562 37,000  Level Salt Lake Center
05:34PM 47.1336 -105.6394 91° East 488 562 37,000  Level Salt Lake Center
05:35PM 47.1333 -105.4400 90° East 490 564 37,000  Level Salt Lake Center
05:36PM 47.1319 -105.2417 91° East 489 563 37,000  Level Salt Lake Center
05:37PM 47.1289 -105.0044 91° East 488 562 37,000  Level Salt Lake Center
05:38PM 47.1256 -104.8069 91° East 487 560 37,000  Level Salt Lake Center
05:39PM 47.1242 -104.6111 91° East 486 559 37,000  Level Salt Lake Center
05:40PM 47.1222 -104.4142 91° East 485 558 37,000  Level Salt Lake Center
05:41PM 47.1186 -104.2178 91° East 486 559 37,000  Level Salt Lake Center
05:42PM 47.1144 -103.9797 91° East 488 562 37,000  Level Salt Lake Center
05:43PM 47.1108 -103.7828 91° East 489 563 37,000  Level Salt Lake Center
05:44PM 47.1072 -103.5836 91° East 490 564 37,000  Level Salt Lake Center
05:45PM 47.1031 -103.3853 92° East 490 564 37,000  Level Salt Lake Center
05:47PM 47.0981 -103.1881 92° East 490 564 37,000  Level Salt Lake Center
05:48PM 47.0919 -102.9503 92° East 489 563 37,000  Level Salt Lake Center
05:49PM 47.0881 -102.7517 92° East 493 567 37,000  Level Minneapolis Center
05:50PM 47.0811 -102.5153 92° East 491 565 37,000  Level Minneapolis Center
05:51PM 47.0758 -102.3186 92° East 488 562 37,000  Level Minneapolis Center
05:52PM 47.0689 -102.1231 93° East 486 559 37,000  Level Minneapolis Center
05:53PM 47.0619 -101.9258 93° East 485 558 37,000  Level Minneapolis Center
05:54PM 47.0539 -101.7311 93° East 484 557 37,000  Level Minneapolis Center
05:55PM 47.0450 -101.4964 93° East 483 556 37,000  Level Minneapolis Center
05:56PM 47.0333 -101.2614 94° East 485 558 37,000  Level Minneapolis Center
05:57PM 47.0281 -101.1053 93° East 484 557 37,000  Level Minneapolis Center
05:58PM 47.0156 -100.9022 95° East 482 555 37,000  Level Minneapolis Center
05:59PM 47.0050 -100.6647 94° East 486 559 37,000  Level Minneapolis Center
06:00PM 46.9958 -100.4872 94° East 480 552 37,000  Level Minneapolis Center
06:01PM 46.9839 -100.2539 94° East 480 552 37,000  Level Minneapolis Center
06:02PM 46.9733 -100.0617 95° East 478 550 37,000  Level Minneapolis Center
06:03PM 46.9633 -99.8683 94° East 477 549 37,000  Level Minneapolis Center
06:04PM 46.9508 -99.6753 95° East 478 550 37,000  Level Minneapolis Center
06:06PM 46.9372 -99.4414 95° East 481 554 37,000  Level Minneapolis Center
06:07PM 46.9261 -99.2503 95° East 478 550 37,000  Level Minneapolis Center
06:08PM 46.9111 -99.0189 95° East 478 550 37,000  Level Minneapolis Center
06:09PM 46.9000 -98.8272 95° East 478 550 37,000  Level Minneapolis Center
06:10PM 46.8869 -98.6353 96° East 478 550 37,000  Level Minneapolis Center
06:11PM 46.8717 -98.4072 96° East 475 547 37,000  Level Minneapolis Center
06:12PM 46.8581 -98.2178 96° East 474 545 37,000 -60 Level Minneapolis Center
06:13PM 46.8453 -98.0292 96° East 471 542 36,900  Descending Minneapolis Center
06:14PM 46.8303 -97.8392 97° East 475 547 37,000  Climbing Minneapolis Center
06:15PM 46.8169 -97.6489 96° East 475 547 37,000  Level Minneapolis Center
06:16PM 46.7961 -97.3842 96° East 472 543 37,000  Level Minneapolis Center
06:17PM 46.7808 -97.1928 97° East 476 548 37,000  Level Minneapolis Center
06:18PM 46.7661 -97.0028 96° East 476 548 37,000  Level Minneapolis Center
06:19PM 46.7431 -96.8125 100° East 479 551 37,000  Level Minneapolis Center
06:20PM 46.6903 -96.6392 114° Southeast 472 543 37,000  Level Minneapolis Center
06:21PM 46.6364 -96.4633 114° Southeast 476 548 37,000  Level Minneapolis Center
06:22PM 46.5725 -96.2497 113° Southeast 482 555 37,000  Level Minneapolis Center
06:24PM 46.5172 -96.0731 114° Southeast 483 556 37,000  Level Minneapolis Center
06:25PM 46.4633 -95.8950 114° Southeast 484 557 37,000  Level Minneapolis Center
06:26PM 46.4008 -95.6944 114° Southeast 484 557 37,000  Level Minneapolis Center
06:27PM 46.3442 -95.5144 114° Southeast 489 563 37,000  Level Minneapolis Center
06:28PM 46.2908 -95.3453 114° Southeast 489 563 37,000  Level Minneapolis Center
06:29PM 46.2347 -95.1669 114° Southeast 490 564 37,000  Level Minneapolis Center
06:30PM 46.1739 -94.9753 115° Southeast 493 567 37,000 -600 Level Minneapolis Center
06:31PM 46.1175 -94.8008 115° Southeast 484 557 35,800 -1,200 Descending Minneapolis Center
06:32PM 46.0500 -94.5947 115° Southeast 479 551 34,600 -2,460 Descending Minneapolis Center
06:33PM 45.9947 -94.4267 115° Southeast 469 540 30,800 -3,660 Descending Minneapolis Center
06:34PM 45.9400 -94.2603 115° Southeast 465 535 27,100 -3,360 Descending Minneapolis Center
06:35PM 45.8861 -94.0958 115° Southeast 461 531 23,900 -3,000 Descending Minneapolis Center
06:36PM 45.8344 -93.9394 115° Southeast 445 512 20,900 -2,880 Descending Minneapolis Center
06:37PM 45.7608 -93.8203 131° Southeast 420 483 18,000 -2,820 Descending Minneapolis Center
06:38PM 45.6731 -93.7264 143° Southeast 394 453 15,100 -3,120 Descending Minneapolis Center
06:39PM 45.5744 -93.6222 144° Southeast 366 421 11,500 -1,980 Descending Minneapolis Center
06:40PM 45.4989 -93.5628 151° Southeast 315 362 11,000 -960 Descending Minneapolis Center
06:41PM 45.4242 -93.5247 160° South 284 327 9,600 -1,320 Descending Minneapolis Center
06:42PM 45.3478 -93.5028 169° South 279 321 8,300 -1,260 Descending Minneapolis Center
06:43PM 45.2594 -93.4989 178° South 266 306 7,000 -660 Descending Minneapolis Center
06:44PM 45.1856 -93.4931 177° South 267 307 7,000 -300 Level Minneapolis Center
06:45PM 45.1136 -93.4722 168° South 269 310 6,500 -1,020 Descending Minneapolis Center
06:46PM 45.0483 -93.4253 153° Southeast 264 304 5,000 -1,020 Descending Minneapolis Center
06:47PM 44.9928 -93.3844 153° Southeast 217 250 4,400 -600 Descending Minneapolis Center